Time;durP1;ratioP1;P1;durP2;ratioP2;P2;SDS_P1;SDS_P2;PMS_P1;PMS_P2;Temp;Humidity;BMP_temperature;BMP_pressure;BME280_temperature;BME280_humidity;BME280_pressure;Samples;Min_cycle;Max_cycle;Signal;HPM_P1;HPM_P2
2022/11/28 00:01:10;;;;;;;70.07;39.08;;;;;;;;;;4995306;28;20046;-72
2022/11/28 00:03:36;;;;;;;76.13;42.45;;;;;;;;;;4995563;28;20030;-72
2022/11/28 00:06:03;;;;;;;67.38;40.22;;;;;;;;;;4995021;28;20029;-74
2022/11/28 00:08:29;;;;;;;65.03;39.45;;;;;;;;;;4995462;28;20098;-72
2022/11/28 00:10:55;;;;;;;73.10;38.40;;;;;;;;;;4995064;28;20093;-74
2022/11/28 00:13:21;;;;;;;74.05;41.00;;;;;;;;;;4995199;28;20397;-74
2022/11/28 00:15:55;;;;;;;76.32;43.65;;;;;;;;;;4994942;28;20034;-73
2022/11/28 00:18:21;;;;;;;70.30;39.20;;;;;;;;;;4994800;28;20125;-73
2022/11/28 00:20:47;;;;;;;61.70;36.72;;;;;;;;;;4993067;28;20086;-73
2022/11/28 00:23:13;;;;;;;71.43;39.67;;;;;;;;;;4994134;28;20023;-72
2022/11/28 00:25:39;;;;;;;101.57;63.17;;;;;;;;;;4995313;28;20026;-73
2022/11/28 00:28:05;;;;;;;67.20;40.22;;;;;;;;;;4994981;28;20026;-73
2022/11/28 00:30:35;;;;;;;71.80;41.15;;;;;;;;;;4994779;28;20488;-73
2022/11/28 00:33:01;;;;;;;76.07;43.38;;;;;;;;;;4994733;28;20424;-72
2022/11/28 00:35:27;;;;;;;66.35;38.63;;;;;;;;;;4994515;28;20481;-73
2022/11/28 00:37:53;;;;;;;69.18;37.78;;;;;;;;;;4994590;28;20124;-73
2022/11/28 00:40:19;;;;;;;87.72;46.33;;;;;;;;;;4994566;28;20018;-72
2022/11/28 00:42:45;;;;;;;78.32;42.60;;;;;;;;;;4994381;28;20026;-72
2022/11/28 00:45:11;;;;;;;64.53;37.83;;;;;;;;;;4988075;28;20551;-73
2022/11/28 00:47:37;;;;;;;75.63;44.25;;;;;;;;;;4988789;28;20085;-72
2022/11/28 00:50:03;;;;;;;74.32;42.85;;;;;;;;;;4987551;28;20733;-73
2022/11/28 00:52:31;;;;;;;73.53;43.60;;;;;;;;;;4966522;28;20030;-73
2022/11/28 00:54:58;;;;;;;73.15;41.25;;;;;;;;;;4994524;28;20042;-72
2022/11/28 00:57:24;;;;;;;82.30;45.28;;;;;;;;;;4994442;28;20021;-73
2022/11/28 00:59:50;;;;;;;85.47;46.45;;;;;;;;;;4994375;28;20113;-73
2022/11/28 01:02:16;;;;;;;83.18;47.22;;;;;;;;;;4990777;28;20026;-73
2022/11/28 01:04:42;;;;;;;79.43;40.80;;;;;;;;;;4990996;28;20073;-71
2022/11/28 01:07:08;;;;;;;70.55;36.97;;;;;;;;;;4993713;28;20030;-72
2022/11/28 01:09:34;;;;;;;73.38;36.72;;;;;;;;;;4994017;28;20026;-72
2022/11/28 01:12:01;;;;;;;67.72;35.75;;;;;;;;;;4976490;28;20523;-73
2022/11/28 01:14:29;;;;;;;69.63;35.70;;;;;;;;;;4993783;28;20507;-72
2022/11/28 01:16:55;;;;;;;71.03;36.50;;;;;;;;;;4993814;28;20022;-72
2022/11/28 01:19:21;;;;;;;64.97;32.53;;;;;;;;;;4993992;28;20034;-74
2022/11/28 01:21:47;;;;;;;72.63;33.35;;;;;;;;;;4972569;28;20030;-72
2022/11/28 01:24:13;;;;;;;65.75;34.72;;;;;;;;;;4991177;28;20156;-73
2022/11/28 01:26:40;;;;;;;68.22;36.30;;;;;;;;;;4987951;28;20031;-75
2022/11/28 01:29:06;;;;;;;68.55;37.47;;;;;;;;;;4988517;28;20077;-72
2022/11/28 01:31:32;;;;;;;66.13;34.35;;;;;;;;;;4987475;28;20054;-72
2022/11/28 01:33:58;;;;;;;63.22;34.30;;;;;;;;;;4990150;28;20109;-72
2022/11/28 01:36:25;;;;;;;70.18;36.63;;;;;;;;;;4992757;28;20022;-72
2022/11/28 01:38:51;;;;;;;65.05;34.40;;;;;;;;;;4988597;28;20089;-73
2022/11/28 01:41:18;;;;;;;72.32;40.05;;;;;;;;;;4989312;28;20105;-72
2022/11/28 01:44:02;;;;;;;66.93;35.70;;;;;;;;;;4993525;28;20073;-72
2022/11/28 01:46:29;;;;;;;68.88;35.80;;;;;;;;;;4998710;28;20045;-72
2022/11/28 01:48:59;;;;;;;62.25;33.08;;;;;;;;;;4965327;28;20030;-72
2022/11/28 01:51:25;;;;;;;68.35;33.97;;;;;;;;;;4987660;28;20544;-73
2022/11/28 01:53:51;;;;;;;69.82;37.03;;;;;;;;;;4992527;28;20041;-72
2022/11/28 01:56:20;;;;;;;66.72;36.50;;;;;;;;;;4992793;28;20062;-72
2022/11/28 01:58:48;;;;;;;75.32;41.22;;;;;;;;;;4993145;28;20045;-74
2022/11/28 02:01:15;;;;;;;71.90;38.67;;;;;;;;;;4993246;28;20538;-75
2022/11/28 02:03:45;;;;;;;83.00;44.85;;;;;;;;;;4992064;28;20030;-73
2022/11/28 02:06:13;;;;;;;75.10;42.03;;;;;;;;;;4989166;28;20027;-74
2022/11/28 02:08:39;;;;;;;79.50;43.97;;;;;;;;;;4988882;28;20022;-74
2022/11/28 02:11:24;;;;;;;70.18;37.90;;;;;;;;;;4992699;28;20396;-73
2022/11/28 02:13:56;;;;;;;93.32;51.00;;;;;;;;;;4993026;28;20037;-73
2022/11/28 02:16:21;;;;;;;;;;;;;;;;;;4993750;28;20034;-72
2022/11/28 02:19:04;;;;;;;105.72;54.42;;;;;;;;;;4993093;28;19941;-72
2022/11/28 02:21:33;;;;;;;83.05;45.05;;;;;;;;;;4985465;28;20061;-74
2022/11/28 02:24:09;;;;;;;77.03;41.88;;;;;;;;;;4992978;28;20049;-74
2022/11/28 02:26:44;;;;;;;69.85;37.95;;;;;;;;;;4992844;28;20026;-73
2022/11/28 02:29:11;;;;;;;69.20;39.92;;;;;;;;;;4992691;28;20514;-74
2022/11/28 02:31:55;;;;;;;83.05;43.90;;;;;;;;;;4992695;28;20060;-70
2022/11/28 02:34:38;;;;;;;66.88;40.30;;;;;;;;;;4992626;28;20038;-72
2022/11/28 02:37:08;;;;;;;73.18;40.47;;;;;;;;;;4992697;28;20072;-72
2022/11/28 02:39:43;;;;;;;71.30;37.60;;;;;;;;;;4992645;28;20023;-71
2022/11/28 02:42:17;;;;;;;86.22;51.50;;;;;;;;;;4992582;28;20037;-72
2022/11/28 02:44:47;;;;;;;78.28;42.28;;;;;;;;;;4992428;28;20049;-72
2022/11/28 02:47:23;;;;;;;75.93;43.17;;;;;;;;;;4995272;28;20085;-73
2022/11/28 02:49:53;;;;;;;77.68;42.45;;;;;;;;;;4996527;28;20020;-72
2022/11/28 02:52:21;;;;;;;73.82;42.78;;;;;;;;;;4986409;28;20069;-73
2022/11/28 02:54:49;;;;;;;81.18;41.17;;;;;;;;;;4996757;28;20421;-71
2022/11/28 02:57:15;;;;;;;71.55;41.97;;;;;;;;;;4996518;28;20025;-72
2022/11/28 02:59:41;;;;;;;68.40;38.65;;;;;;;;;;4979025;28;20121;-72
2022/11/28 03:02:14;;;;;;;72.80;40.38;;;;;;;;;;4978641;28;20022;-72
2022/11/28 03:04:52;;;;;;;71.28;39.30;;;;;;;;;;4995973;28;20030;-72
2022/11/28 03:07:33;;;;;;;76.35;41.83;;;;;;;;;;4996455;28;20022;-72
2022/11/28 03:10:05;;;;;;;71.05;38.70;;;;;;;;;;4996268;28;20491;-72
2022/11/28 03:12:42;;;;;;;73.63;39.83;;;;;;;;;;4996188;28;20061;-72
2022/11/28 03:15:09;;;;;;;71.28;40.15;;;;;;;;;;4996161;28;20073;-72
2022/11/28 03:17:53;;;;;;;61.45;34.22;;;;;;;;;;4995972;28;20499;-72
2022/11/28 03:20:28;;;;;;;53.88;31.30;;;;;;;;;;4996328;28;20475;-72
2022/11/28 03:23:06;;;;;;;58.63;32.20;;;;;;;;;;4994088;28;20098;-73
2022/11/28 03:25:35;;;;;;;54.83;30.67;;;;;;;;;;4996298;28;20107;-71
2022/11/28 03:28:28;;;;;;;56.50;32.33;;;;;;;;;;4995256;28;20068;-73
2022/11/28 03:30:58;;;;;;;72.22;39.67;;;;;;;;;;4966145;28;20125;-71
2022/11/28 03:33:25;;;;;;;73.15;40.10;;;;;;;;;;5004548;28;20103;-73
2022/11/28 03:35:54;;;;;;;73.63;39.30;;;;;;;;;;5000570;28;20503;-72
2022/11/28 03:38:21;;;;;;;71.88;40.15;;;;;;;;;;4995753;28;20034;-73
2022/11/28 03:40:50;;;;;;;73.20;39.95;;;;;;;;;;5001067;28;20026;-73
2022/11/28 03:43:20;;;;;;;68.22;40.15;;;;;;;;;;4995816;28;20366;-71
2022/11/28 03:45:51;;;;;;;73.93;41.10;;;;;;;;;;4995629;28;20104;-72
2022/11/28 03:48:26;;;;;;;72.40;39.70;;;;;;;;;;4998050;28;20571;-72
2022/11/28 03:51:02;;;;;;;82.32;42.50;;;;;;;;;;4992929;28;20054;-70
2022/11/28 03:53:34;;;;;;;66.88;35.78;;;;;;;;;;4981983;28;20026;-70
2022/11/28 03:56:04;;;;;;;83.35;42.90;;;;;;;;;;4995296;28;20069;-71
2022/11/28 03:58:35;;;;;;;66.18;37.30;;;;;;;;;;4994201;28;20018;-71
2022/11/28 04:01:01;;;;;;;;;;;;;;;;;;4986397;28;20023;-70
2022/11/28 04:03:57;;;;;;;67.00;38.58;;;;;;;;;;4994901;28;19952;-71
2022/11/28 04:06:28;;;;;;;74.05;40.35;;;;;;;;;;4897309;29;20041;-71
2022/11/28 04:09:01;;;;;;;72.13;38.78;;;;;;;;;;4897395;29;20028;-71
2022/11/28 04:11:33;;;;;;;63.10;38.00;;;;;;;;;;4904070;29;20037;-73
2022/11/28 04:14:02;;;;;;;65.45;35.08;;;;;;;;;;4897203;29;20037;-72
2022/11/28 04:16:34;;;;;;;60.65;35.13;;;;;;;;;;4899853;29;20041;-72
2022/11/28 04:19:04;;;;;;;61.33;34.28;;;;;;;;;;4894661;29;20056;-71
2022/11/28 04:21:34;;;;;;;66.22;37.15;;;;;;;;;;4896446;29;20523;-70
2022/11/28 04:24:02;;;;;;;69.53;35.42;;;;;;;;;;4901364;29;20498;-72
2022/11/28 04:26:32;;;;;;;64.68;39.30;;;;;;;;;;4896897;29;20031;-72
2022/11/28 04:29:00;;;;;;;68.10;36.03;;;;;;;;;;4897071;29;20032;-71
2022/11/28 04:31:26;;;;;;;68.47;37.80;;;;;;;;;;4896861;29;20037;-72
2022/11/28 04:33:56;;;;;;;64.60;38.20;;;;;;;;;;4898682;29;20025;-70
2022/11/28 04:36:23;;;;;;;70.13;39.10;;;;;;;;;;4907672;29;20538;-71
2022/11/28 04:38:55;;;;;;;68.97;37.50;;;;;;;;;;4900691;29;20115;-71
2022/11/28 04:41:41;;;;;;;97.50;49.88;;;;;;;;;;4896933;29;20375;-71
2022/11/28 04:44:21;;;;;;;75.05;41.67;;;;;;;;;;4993214;28;20039;-72
2022/11/28 04:46:50;;;;;;;73.28;40.28;;;;;;;;;;4991610;28;20076;-71
2022/11/28 04:49:16;;;;;;;67.45;36.45;;;;;;;;;;4994522;28;20080;-72
2022/11/28 04:51:58;;;;;;;66.20;37.28;;;;;;;;;;4994001;28;20058;-72
2022/11/28 04:54:23;;;;;;;;;;;;;;;;;;4994861;28;20503;-72
2022/11/28 04:56:55;;;;;;;59.30;31.67;;;;;;;;;;4994475;28;19906;-73
2022/11/28 04:59:21;;;;;;;;;;;;;;;;;;4994859;28;20030;-72
2022/11/28 05:01:48;;;;;;;57.80;33.25;;;;;;;;;;4994590;28;19906;-72
2022/11/28 05:04:16;;;;;;;62.53;34.30;;;;;;;;;;4995395;28;20034;-72
2022/11/28 05:06:42;;;;;;;61.50;33.35;;;;;;;;;;4994249;28;20014;-73
2022/11/28 05:09:12;;;;;;;55.25;32.33;;;;;;;;;;4993268;28;20058;-73
2022/11/28 05:11:38;;;;;;;64.18;36.28;;;;;;;;;;4994517;28;20097;-73
2022/11/28 05:14:04;;;;;;;73.22;39.83;;;;;;;;;;4999330;28;20022;-73
2022/11/28 05:16:30;;;;;;;64.72;37.80;;;;;;;;;;4993680;28;20039;-72
2022/11/28 05:18:56;;;;;;;77.00;43.30;;;;;;;;;;4991937;28;20042;-73
2022/11/28 05:21:22;;;;;;;74.60;42.03;;;;;;;;;;4992370;28;20030;-72
2022/11/28 05:23:48;;;;;;;80.15;43.38;;;;;;;;;;4995859;28;20468;-73
2022/11/28 05:26:16;;;;;;;78.03;42.75;;;;;;;;;;4999387;28;20026;-73
2022/11/28 05:28:46;;;;;;;85.07;44.08;;;;;;;;;;4993843;28;20057;-72
2022/11/28 05:31:12;;;;;;;86.72;44.47;;;;;;;;;;4993728;28;20030;-70
2022/11/28 05:33:39;;;;;;;85.32;44.45;;;;;;;;;;4993594;28;20077;-72
2022/11/28 05:36:07;;;;;;;83.20;44.53;;;;;;;;;;4993699;28;20035;-72
2022/11/28 05:38:33;;;;;;;76.95;41.70;;;;;;;;;;4993655;28;20022;-72
2022/11/28 05:40:59;;;;;;;75.15;43.08;;;;;;;;;;4993408;28;20029;-73
2022/11/28 05:43:26;;;;;;;80.68;43.10;;;;;;;;;;4993461;28;20068;-73
2022/11/28 05:45:52;;;;;;;87.80;47.78;;;;;;;;;;4993424;28;20476;-72
2022/11/28 05:48:18;;;;;;;86.05;50.10;;;;;;;;;;4992354;28;20053;-72
2022/11/28 05:50:44;;;;;;;93.53;51.72;;;;;;;;;;4992513;28;20026;-72
2022/11/28 05:53:11;;;;;;;83.47;47.78;;;;;;;;;;4990735;28;20027;-72
2022/11/28 05:55:38;;;;;;;86.10;49.08;;;;;;;;;;4993353;28;20054;-72
2022/11/28 05:58:04;;;;;;;88.38;49.00;;;;;;;;;;4992765;28;20022;-72
2022/11/28 06:00:30;;;;;;;94.55;49.83;;;;;;;;;;4993329;28;20026;-73
2022/11/28 06:02:56;;;;;;;86.70;47.05;;;;;;;;;;4993798;28;20030;-75
2022/11/28 06:05:23;;;;;;;175.18;95.57;;;;;;;;;;4993615;28;20432;-75
2022/11/28 06:07:49;;;;;;;312.30;147.52;;;;;;;;;;4995268;28;20030;-74
2022/11/28 06:10:15;;;;;;;140.48;79.57;;;;;;;;;;4994745;28;20026;-72
2022/11/28 06:12:41;;;;;;;94.25;51.85;;;;;;;;;;4993706;28;20100;-74
2022/11/28 06:15:08;;;;;;;98.47;52.70;;;;;;;;;;4993783;28;20387;-71
2022/11/28 06:17:34;;;;;;;88.93;49.55;;;;;;;;;;4993302;28;20046;-73
2022/11/28 06:20:00;;;;;;;94.28;49.33;;;;;;;;;;4993356;28;20031;-74
2022/11/28 06:22:26;;;;;;;87.55;50.45;;;;;;;;;;4992643;28;20014;-75
2022/11/28 06:24:52;;;;;;;106.38;63.83;;;;;;;;;;4993323;28;20552;-72
2022/11/28 06:27:18;;;;;;;124.38;67.35;;;;;;;;;;4993459;28;20116;-74
2022/11/28 06:29:44;;;;;;;137.07;76.57;;;;;;;;;;4993431;28;20034;-76
2022/11/28 06:32:10;;;;;;;112.30;61.10;;;;;;;;;;4993393;28;20029;-74
2022/11/28 06:34:37;;;;;;;103.80;57.55;;;;;;;;;;4993333;28;20089;-74
2022/11/28 06:37:03;;;;;;;118.00;61.15;;;;;;;;;;4993143;28;20027;-73
2022/11/28 06:39:29;;;;;;;120.25;67.38;;;;;;;;;;4993452;28;20362;-72
2022/11/28 06:41:55;;;;;;;119.28;63.95;;;;;;;;;;4993075;28;20046;-75
2022/11/28 06:44:21;;;;;;;114.07;60.08;;;;;;;;;;4993060;28;20393;-72
2022/11/28 06:46:47;;;;;;;109.35;61.15;;;;;;;;;;4993458;28;20401;-72
2022/11/28 06:49:13;;;;;;;104.32;56.40;;;;;;;;;;4993210;28;20089;-74
2022/11/28 06:51:40;;;;;;;107.00;56.17;;;;;;;;;;4993098;28;20492;-74
2022/11/28 06:54:07;;;;;;;107.55;56.13;;;;;;;;;;4992919;28;20122;-74
2022/11/28 06:56:33;;;;;;;101.57;54.63;;;;;;;;;;4993285;28;20384;-74
2022/11/28 06:58:59;;;;;;;102.25;57.03;;;;;;;;;;4992855;28;20031;-72
2022/11/28 07:01:26;;;;;;;110.15;60.15;;;;;;;;;;4993210;28;20022;-75
2022/11/28 07:03:55;;;;;;;102.82;58.92;;;;;;;;;;4993095;28;20234;-73
2022/11/28 07:06:22;;;;;;;112.53;61.53;;;;;;;;;;4993071;28;20029;-72
2022/11/28 07:08:48;;;;;;;116.03;69.97;;;;;;;;;;4992928;28;20267;-74
2022/11/28 07:11:16;;;;;;;121.38;67.03;;;;;;;;;;4992980;28;20030;-72
2022/11/28 07:13:44;;;;;;;100.68;55.45;;;;;;;;;;4992890;28;20027;-74
2022/11/28 07:16:21;;;;;;;111.78;61.50;;;;;;;;;;4993151;28;20035;-74
2022/11/28 07:18:47;;;;;;;123.57;60.55;;;;;;;;;;4992923;28;20416;-74
2022/11/28 07:21:13;;;;;;;153.75;84.30;;;;;;;;;;4975379;28;20034;-74
2022/11/28 07:23:40;;;;;;;130.93;68.72;;;;;;;;;;4992873;28;20020;-73
2022/11/28 07:26:06;;;;;;;115.10;63.00;;;;;;;;;;4992862;28;20417;-74
2022/11/28 07:28:33;;;;;;;104.95;59.13;;;;;;;;;;4975180;28;20531;-74
2022/11/28 07:31:11;;;;;;;126.25;73.43;;;;;;;;;;4992888;28;20027;-73
2022/11/28 07:33:38;;;;;;;115.88;60.75;;;;;;;;;;4995652;28;20022;-74
2022/11/28 07:36:05;;;;;;;104.38;58.33;;;;;;;;;;4996288;28;20230;-74
2022/11/28 07:38:31;;;;;;;111.55;57.88;;;;;;;;;;4996420;28;20015;-74
2022/11/28 07:41:05;;;;;;;109.25;60.55;;;;;;;;;;4996558;28;20392;-72
2022/11/28 07:43:31;;;;;;;104.70;56.65;;;;;;;;;;4996173;28;20026;-74
2022/11/28 07:45:57;;;;;;;98.45;53.08;;;;;;;;;;4996582;28;20093;-72
2022/11/28 07:48:23;;;;;;;98.03;50.88;;;;;;;;;;4996355;28;20035;-74
2022/11/28 07:50:49;;;;;;;96.72;50.53;;;;;;;;;;4996336;28;20030;-74
2022/11/28 07:53:15;;;;;;;92.75;50.03;;;;;;;;;;4996003;28;20057;-74
2022/11/28 07:55:41;;;;;;;92.03;48.13;;;;;;;;;;4978506;28;20030;-74
2022/11/28 07:58:07;;;;;;;99.15;50.58;;;;;;;;;;4995836;28;20034;-74
2022/11/28 08:00:34;;;;;;;100.28;52.88;;;;;;;;;;4995955;28;20034;-74
2022/11/28 08:03:00;;;;;;;94.82;50.20;;;;;;;;;;4995763;28;20018;-74
2022/11/28 08:05:26;;;;;;;90.78;48.97;;;;;;;;;;4995475;28;20532;-72
2022/11/28 08:07:52;;;;;;;82.10;47.85;;;;;;;;;;4995854;28;20023;-72
2022/11/28 08:10:18;;;;;;;88.63;47.20;;;;;;;;;;4995768;28;20034;-74
2022/11/28 08:12:44;;;;;;;81.15;43.78;;;;;;;;;;4995640;28;20026;-74
2022/11/28 08:15:10;;;;;;;83.70;46.78;;;;;;;;;;4995604;28;20488;-74
2022/11/28 08:17:36;;;;;;;90.63;50.38;;;;;;;;;;4995186;28;20121;-74
2022/11/28 08:20:03;;;;;;;91.72;50.42;;;;;;;;;;4995566;28;20023;-74
2022/11/28 08:22:29;;;;;;;88.75;46.45;;;;;;;;;;4995642;28;20034;-74
2022/11/28 08:24:55;;;;;;;78.07;43.33;;;;;;;;;;4995496;28;20022;-74
2022/11/28 08:27:21;;;;;;;79.18;42.05;;;;;;;;;;4995627;28;20529;-74
2022/11/28 08:29:47;;;;;;;78.97;43.72;;;;;;;;;;4995364;28;20027;-74
2022/11/28 08:32:13;;;;;;;93.03;54.00;;;;;;;;;;4995336;28;20080;-73
2022/11/28 08:34:39;;;;;;;80.22;44.15;;;;;;;;;;4995210;28;20090;-73
2022/11/28 08:37:05;;;;;;;74.97;43.28;;;;;;;;;;4995292;28;20485;-76
2022/11/28 08:39:32;;;;;;;95.38;51.83;;;;;;;;;;4995257;28;20404;-75
2022/11/28 08:41:59;;;;;;;93.32;51.25;;;;;;;;;;4995057;28;20579;-74
2022/11/28 08:44:27;;;;;;;140.43;71.00;;;;;;;;;;4994128;28;20373;-74
2022/11/28 08:46:54;;;;;;;73.90;43.30;;;;;;;;;;4995054;28;20019;-75
2022/11/28 08:49:20;;;;;;;91.60;50.38;;;;;;;;;;4995515;28;20026;-72
2022/11/28 08:51:46;;;;;;;90.75;50.47;;;;;;;;;;4994814;28;20437;-75
2022/11/28 08:54:12;;;;;;;98.97;52.30;;;;;;;;;;4994879;28;20069;-74
2022/11/28 08:56:38;;;;;;;98.35;54.17;;;;;;;;;;4994951;28;20053;-74
2022/11/28 08:59:05;;;;;;;89.63;51.58;;;;;;;;;;4994747;28;20065;-74
2022/11/28 09:01:32;;;;;;;81.80;48.30;;;;;;;;;;4995208;28;20023;-74
2022/11/28 09:03:58;;;;;;;86.53;50.10;;;;;;;;;;4994651;28;20026;-73
2022/11/28 09:06:24;;;;;;;86.28;50.15;;;;;;;;;;4994756;28;20070;-75
2022/11/28 09:08:51;;;;;;;82.90;47.90;;;;;;;;;;4994408;28;20033;-74
2022/11/28 09:11:18;;;;;;;88.97;46.67;;;;;;;;;;4994726;28;20023;-75
2022/11/28 09:13:45;;;;;;;76.10;42.22;;;;;;;;;;4994476;28;20476;-74
2022/11/28 09:16:11;;;;;;;76.13;44.53;;;;;;;;;;4994142;28;20038;-74
2022/11/28 09:18:37;;;;;;;78.80;44.15;;;;;;;;;;4994539;28;20058;-73
2022/11/28 09:21:08;;;;;;;74.80;45.67;;;;;;;;;;4994376;28;20023;-73
2022/11/28 09:23:34;;;;;;;81.33;43.93;;;;;;;;;;4994779;28;20023;-72
2022/11/28 09:26:00;;;;;;;88.38;47.72;;;;;;;;;;4993911;28;20061;-74
2022/11/28 09:28:29;;;;;;;84.07;45.53;;;;;;;;;;4993928;28;20038;-72
2022/11/28 09:30:59;;;;;;;75.95;43.58;;;;;;;;;;4994251;28;20130;-74
2022/11/28 09:33:25;;;;;;;79.10;44.05;;;;;;;;;;4994092;28;20026;-72
2022/11/28 09:35:51;;;;;;;72.85;42.17;;;;;;;;;;4994402;28;20481;-74
2022/11/28 09:38:17;;;;;;;68.38;39.75;;;;;;;;;;4994128;28;20464;-74
2022/11/28 09:40:44;;;;;;;80.93;46.20;;;;;;;;;;4994168;28;20054;-74
2022/11/28 09:43:21;;;;;;;77.32;44.28;;;;;;;;;;4993816;28;20033;-74
2022/11/28 09:45:50;;;;;;;79.57;43.45;;;;;;;;;;4994363;28;20114;-74
2022/11/28 09:48:25;;;;;;;149.93;77.20;;;;;;;;;;4994021;28;20492;-75
2022/11/28 09:50:57;;;;;;;90.80;51.20;;;;;;;;;;4994186;28;20350;-74
2022/11/28 09:53:26;;;;;;;98.22;47.78;;;;;;;;;;4993446;28;20023;-73
2022/11/28 09:55:55;;;;;;;97.80;46.45;;;;;;;;;;4993172;28;20084;-74
2022/11/28 09:58:40;;;;;;;74.80;42.60;;;;;;;;;;4993832;28;20477;-74
2022/11/28 10:01:10;;;;;;;77.30;42.38;;;;;;;;;;4993986;28;20122;-76
2022/11/28 10:03:42;;;;;;;82.40;46.70;;;;;;;;;;4994213;28;20053;-77
2022/11/28 10:06:11;;;;;;;89.78;46.80;;;;;;;;;;4993706;28;20380;-75
2022/11/28 10:08:56;;;;;;;84.38;49.08;;;;;;;;;;4993596;28;20465;-75
2022/11/28 10:11:28;;;;;;;98.80;56.20;;;;;;;;;;4981698;28;20026;-74
2022/11/28 10:14:00;;;;;;;96.70;62.53;;;;;;;;;;4993426;28;20097;-76
2022/11/28 10:16:34;;;;;;;96.95;58.67;;;;;;;;;;4993965;28;20665;-75
2022/11/28 10:19:03;;;;;;;72.47;45.45;;;;;;;;;;4993254;28;20043;-72
2022/11/28 10:21:41;;;;;;;82.85;48.38;;;;;;;;;;4993532;28;20030;-73
2022/11/28 10:24:18;;;;;;;85.18;49.33;;;;;;;;;;4993637;28;20575;-75
2022/11/28 10:26:45;;;;;;;73.50;44.97;;;;;;;;;;4993411;28;20018;-77
2022/11/28 10:29:38;;;;;;;73.72;44.60;;;;;;;;;;4976068;28;20080;-77
2022/11/28 10:32:05;;;;;;;72.18;43.58;;;;;;;;;;4989923;28;20041;-76
2022/11/28 10:34:38;;;;;;;74.68;46.35;;;;;;;;;;4993379;28;20022;-76
2022/11/28 10:37:06;;;;;;;84.85;52.13;;;;;;;;;;4993109;28;20018;-75
2022/11/28 10:39:34;;;;;;;61.80;39.55;;;;;;;;;;4993311;28;20453;-74
2022/11/28 10:42:12;;;;;;;93.60;54.58;;;;;;;;;;4993273;28;20350;-74
2022/11/28 10:45:02;;;;;;;108.30;65.43;;;;;;;;;;4975499;28;20396;-73
2022/11/28 10:47:40;;;;;;;57.33;37.58;;;;;;;;;;4983006;28;20043;-74
2022/11/28 10:50:12;;;;;;;65.82;43.20;;;;;;;;;;4993184;28;20030;-76
2022/11/28 10:52:59;;;;;;;76.32;49.25;;;;;;;;;;4992959;28;20046;-75
2022/11/28 10:55:29;;;;;;;90.57;55.38;;;;;;;;;;4992799;28;20041;-75
2022/11/28 10:58:03;;;;;;;75.22;47.80;;;;;;;;;;4993214;28;20015;-76
2022/11/28 11:00:29;;;;;;;64.90;41.88;;;;;;;;;;4975667;28;20503;-75
2022/11/28 11:02:56;;;;;;;68.00;38.83;;;;;;;;;;4975639;28;20035;-76
2022/11/28 11:05:25;;;;;;;54.80;34.92;;;;;;;;;;4992848;28;20121;-76
2022/11/28 11:07:54;;;;;;;60.50;35.08;;;;;;;;;;4977393;28;20061;-76
2022/11/28 11:10:22;;;;;;;65.00;39.60;;;;;;;;;;4997062;28;20062;-76
2022/11/28 11:12:52;;;;;;;67.47;37.30;;;;;;;;;;4979256;28;20023;-75
2022/11/28 11:15:24;;;;;;;53.20;35.13;;;;;;;;;;4997227;28;20045;-74
2022/11/28 11:17:50;;;;;;;55.45;34.65;;;;;;;;;;4996508;28;20042;-74
2022/11/28 11:20:22;;;;;;;52.15;31.50;;;;;;;;;;4996557;28;20030;-74
2022/11/28 11:22:56;;;;;;;61.30;40.22;;;;;;;;;;4996551;28;20104;-74
2022/11/28 11:25:23;;;;;;;58.13;37.67;;;;;;;;;;4983905;28;20035;-74
2022/11/28 11:27:50;;;;;;;57.47;34.85;;;;;;;;;;4996625;28;20026;-73
2022/11/28 11:30:26;;;;;;;46.25;31.02;;;;;;;;;;4996544;28;20093;-74
2022/11/28 11:32:52;;;;;;;53.47;32.13;;;;;;;;;;4996526;28;20038;-74
2022/11/28 11:35:24;;;;;;;44.15;30.08;;;;;;;;;;4996389;28;20506;-75
2022/11/28 11:37:50;;;;;;;50.13;31.75;;;;;;;;;;4996395;28;20100;-75
2022/11/28 11:40:25;;;;;;;54.63;31.92;;;;;;;;;;4996366;28;20168;-73
2022/11/28 11:42:56;;;;;;;42.28;27.55;;;;;;;;;;4996781;28;20108;-74
2022/11/28 11:45:33;;;;;;;43.43;27.60;;;;;;;;;;4996057;28;20030;-74
2022/11/28 11:47:59;;;;;;;38.35;24.95;;;;;;;;;;4996257;28;20062;-74
2022/11/28 11:50:27;;;;;;;41.35;25.60;;;;;;;;;;4996416;28;20015;-75
2022/11/28 11:53:09;;;;;;;39.05;27.23;;;;;;;;;;4996243;28;20022;-75
2022/11/28 11:55:44;;;;;;;39.72;24.83;;;;;;;;;;4996084;28;20113;-76
2022/11/28 11:58:12;;;;;;;40.35;24.48;;;;;;;;;;4996940;28;20156;-74
2022/11/28 12:00:39;;;;;;;41.55;25.80;;;;;;;;;;4996502;28;20388;-74
2022/11/28 12:03:11;;;;;;;44.65;26.38;;;;;;;;;;4995924;28;20022;-74
2022/11/28 12:05:55;;;;;;;96.95;51.38;;;;;;;;;;4995867;28;20033;-74
2022/11/28 12:08:25;;;;;;;43.78;26.80;;;;;;;;;;4995837;28;20058;-74
2022/11/28 12:11:20;;;;;;;40.20;26.38;;;;;;;;;;4995610;28;20026;-75
2022/11/28 12:13:46;;;;;;;43.70;26.35;;;;;;;;;;4975227;28;20545;-74
2022/11/28 12:16:21;;;;;;;42.97;29.25;;;;;;;;;;4995846;28;20388;-74
2022/11/28 12:18:50;;;;;;;48.35;31.27;;;;;;;;;;4973523;28;20079;-73
2022/11/28 12:21:16;;;;;;;47.90;28.67;;;;;;;;;;4975867;28;20022;-74
2022/11/28 12:24:09;;;;;;;45.17;28.27;;;;;;;;;;4974693;28;20022;-75
2022/11/28 12:26:38;;;;;;;47.80;29.10;;;;;;;;;;4973252;28;20401;-74
2022/11/28 12:29:16;;;;;;;41.70;28.23;;;;;;;;;;4976060;28;20022;-75
2022/11/28 12:31:51;;;;;;;45.67;29.83;;;;;;;;;;4975738;28;20481;-75
2022/11/28 12:34:27;;;;;;;47.42;29.92;;;;;;;;;;4975785;28;20038;-75
2022/11/28 12:37:01;;;;;;;38.85;26.20;;;;;;;;;;4975795;28;20018;-75
2022/11/28 12:39:46;;;;;;;45.72;28.40;;;;;;;;;;4975654;28;20485;-75
2022/11/28 12:42:15;;;;;;;45.50;28.45;;;;;;;;;;4975784;28;20027;-76
2022/11/28 12:44:51;;;;;;;46.20;29.25;;;;;;;;;;4975749;28;20073;-75
2022/11/28 12:47:17;;;;;;;39.47;26.40;;;;;;;;;;4975212;28;20042;-75
2022/11/28 12:49:43;;;;;;;45.75;28.92;;;;;;;;;;4975450;28;20481;-75
2022/11/28 12:52:12;;;;;;;36.58;26.55;;;;;;;;;;4975446;28;20035;-75
2022/11/28 12:54:41;;;;;;;35.80;25.33;;;;;;;;;;4975827;28;20122;-76
2022/11/28 12:57:07;;;;;;;57.17;29.30;;;;;;;;;;4975348;28;20030;-75
2022/11/28 12:59:49;;;;;;;60.15;35.63;;;;;;;;;;4975562;28;20070;-75
2022/11/28 13:02:38;;;;;;;49.88;27.70;;;;;;;;;;4975341;28;20030;-75
2022/11/28 13:05:04;;;;;;;57.50;33.28;;;;;;;;;;4975463;28;20389;-75
2022/11/28 13:07:54;;;;;;;44.17;29.00;;;;;;;;;;4975053;28;20026;-77
2022/11/28 13:10:24;;;;;;;49.42;28.27;;;;;;;;;;4915495;29;20032;-75
2022/11/28 13:13:08;;;;;;;58.80;34.22;;;;;;;;;;4915774;29;20059;-76
2022/11/28 13:15:57;;;;;;;72.95;43.63;;;;;;;;;;4915535;29;20488;-76
2022/11/28 13:18:29;;;;;;;41.97;28.70;;;;;;;;;;4915291;29;20060;-77
2022/11/28 13:20:59;;;;;;;41.08;27.00;;;;;;;;;;4915792;29;20044;-76
2022/11/28 13:23:28;;;;;;;45.72;32.17;;;;;;;;;;4915353;29;20024;-75
2022/11/28 13:25:54;;;;;;;43.15;27.70;;;;;;;;;;4915679;29;20036;-75
2022/11/28 13:28:42;;;;;;;30.38;20.38;;;;;;;;;;4915415;29;20028;-75
2022/11/28 13:31:28;;;;;;;59.20;36.42;;;;;;;;;;4915023;29;20047;-75
2022/11/28 13:33:55;;;;;;;45.50;30.80;;;;;;;;;;4900207;29;20119;-75
2022/11/28 13:36:24;;;;;;;29.85;20.27;;;;;;;;;;4915350;29;20043;-75
2022/11/28 13:38:56;;;;;;;32.78;24.27;;;;;;;;;;4915329;29;20109;-75
2022/11/28 13:41:36;;;;;;;35.88;23.77;;;;;;;;;;4915227;29;20115;-75
2022/11/28 13:44:05;;;;;;;26.75;17.25;;;;;;;;;;4915267;28;20031;-75
2022/11/28 13:46:33;;;;;;;27.33;18.63;;;;;;;;;;4925620;28;20046;-74
2022/11/28 13:49:00;;;;;;;25.08;18.15;;;;;;;;;;4973190;28;20476;-75
2022/11/28 13:51:28;;;;;;;30.65;20.05;;;;;;;;;;4974466;28;20050;-75
2022/11/28 13:54:12;;;;;;;22.25;16.08;;;;;;;;;;4974190;28;20030;-74
2022/11/28 13:56:38;;;;;;;19.55;13.80;;;;;;;;;;4974648;28;20035;-76
2022/11/28 13:59:04;;;;;;;24.90;15.30;;;;;;;;;;4974357;28;20051;-77
2022/11/28 14:01:42;;;;;;;28.92;20.23;;;;;;;;;;4974346;28;20451;-75
2022/11/28 14:04:11;;;;;;;26.63;18.60;;;;;;;;;;4974342;28;20023;-76
2022/11/28 14:06:46;;;;;;;21.83;16.27;;;;;;;;;;4974291;28;20019;-75
2022/11/28 14:09:12;;;;;;;22.10;15.30;;;;;;;;;;4974012;28;20094;-75
2022/11/28 14:11:45;;;;;;;21.48;15.38;;;;;;;;;;4974185;28;20047;-75
2022/11/28 14:14:14;;;;;;;26.83;17.15;;;;;;;;;;4974029;28;20372;-75
2022/11/28 14:16:46;;;;;;;23.48;17.48;;;;;;;;;;4974114;28;20572;-75
2022/11/28 14:19:12;;;;;;;24.00;16.83;;;;;;;;;;4992762;28;20054;-74
2022/11/28 14:21:47;;;;;;;24.88;16.65;;;;;;;;;;4993740;28;20534;-75
2022/11/28 14:24:22;;;;;;;32.55;20.10;;;;;;;;;;4993177;28;20025;-74
2022/11/28 14:26:56;;;;;;;33.85;23.52;;;;;;;;;;4993313;28;20022;-77
2022/11/28 14:29:28;;;;;;;30.40;21.20;;;;;;;;;;4993242;28;20026;-75
2022/11/28 14:31:55;;;;;;;26.05;18.02;;;;;;;;;;4993619;28;20018;-74